Aberdeen, Mississippi
Current Conditions -  °F | °C
As of 9:35 AM on Thursday 30 Oct 2014 (Local Time) from KM40 Reporting Station
Clear Clear  
Wind Chill: 12°   Ceiling: Unl
Heat Index: 12°   Visibility: 8mi
Dew Point:   Wind: 0mph
Humidity: 58%   Direction: NA
Pressure: 30.19"   Gusts: NA
Location:  33.82°N, 88.54°W
Report Text: KM40 301435Z AUTO 00000KT 8SM CLR 12/04 A3019 RMK AO2
Loading
Personal Weather Stations






























Interactive Weather Map
Tropical Storm Tracking
New forecast layout! Learn more

10-Day Weather Forecast

Advertisements
Track Severe Weather on mobile